createdAt,value
2017-06-30T06:21:47.234Z,2.87
2017-06-30T06:22:08.224Z,3.10
2017-06-30T06:22:32.013Z,3.10
2017-06-30T06:22:51.057Z,3.20
2017-06-30T06:23:07.858Z,3.30
2017-06-30T06:23:24.949Z,2.83
2017-06-30T06:23:46.661Z,2.62
2017-06-30T06:24:08.680Z,2.87
2017-06-30T06:24:32.195Z,3.42
2017-06-30T06:24:51.885Z,3.60
2017-06-30T06:25:09.191Z,5.90
2017-06-30T06:25:29.183Z,5.90
2017-06-30T06:25:51.382Z,6.12
2017-06-30T06:26:12.171Z,4.50
2017-06-30T06:26:28.347Z,3.72
2017-06-30T06:26:50.300Z,3.10
2017-06-30T06:27:12.903Z,3.50
2017-06-30T06:27:34.099Z,3.53
2017-06-30T06:27:56.154Z,3.55
2017-06-30T06:28:19.250Z,3.55
2017-06-30T06:28:41.678Z,3.42
2017-06-30T06:29:03.153Z,2.30
2017-06-30T06:29:25.810Z,2.60
2017-06-30T06:29:51.144Z,3.12
2017-06-30T06:30:12.127Z,2.65
2017-06-30T06:30:33.082Z,2.35
2017-06-30T06:30:51.824Z,3.62
2017-06-30T06:31:20.112Z,3.97
2017-06-30T06:31:37.109Z,4.00
2017-06-30T06:32:01.110Z,3.62
2017-06-30T06:32:18.457Z,3.60
2017-06-30T06:32:35.557Z,3.12
2017-06-30T06:32:52.757Z,2.22
2017-06-30T06:33:10.682Z,3.10
2017-06-30T06:33:29.625Z,3.28
2017-06-30T06:33:50.618Z,3.25
2017-06-30T06:34:07.820Z,2.30
2017-06-30T06:34:28.074Z,2.08
2017-06-30T06:34:47.117Z,2.20
2017-06-30T06:35:08.065Z,1.90
2017-06-30T06:35:27.895Z,3.20
2017-06-30T06:35:48.169Z,3.37
2017-06-30T06:36:08.543Z,4.25
2017-06-30T06:36:32.915Z,3.78
2017-06-30T06:36:52.893Z,3.37
2017-06-30T06:37:18.039Z,3.10
2017-06-30T06:37:38.482Z,2.62
2017-06-30T06:37:59.442Z,3.00
2017-06-30T06:38:22.823Z,3.80
2017-06-30T06:38:43.996Z,4.45
2017-06-30T06:39:06.038Z,4.80
2017-06-30T06:39:27.014Z,2.78
2017-06-30T06:39:48.008Z,3.55
2017-06-30T06:40:05.600Z,3.58
2017-06-30T06:40:22.597Z,3.70
2017-06-30T06:40:40.113Z,2.90
2017-06-30T06:40:59.460Z,2.40
2017-06-30T06:41:20.988Z,2.67
2017-06-30T06:41:42.481Z,2.92
2017-06-30T06:42:04.798Z,4.82
2017-06-30T06:42:24.968Z,4.80
2017-06-30T06:42:46.035Z,3.92
2017-06-30T06:43:03.575Z,2.50
2017-06-30T06:43:20.674Z,2.78
2017-06-30T06:43:40.539Z,3.78
2017-06-30T06:43:58.956Z,4.43
2017-06-30T06:44:19.763Z,4.00
2017-06-30T06:44:38.947Z,3.72
2017-06-30T06:44:59.977Z,2.75
2017-06-30T06:45:21.976Z,3.33
2017-06-30T06:45:44.942Z,3.47
2017-06-30T06:46:09.842Z,4.22
2017-06-30T06:46:28.970Z,3.85
2017-06-30T06:46:50.730Z,4.03
2017-06-30T06:47:08.407Z,3.50
2017-06-30T06:47:28.890Z,3.50
2017-06-30T06:47:47.223Z,2.50
2017-06-30T06:48:06.904Z,2.87
2017-06-30T06:48:28.691Z,3.72
2017-06-30T06:48:50.032Z,4.20
2017-06-30T06:49:08.454Z,4.37
2017-06-30T06:49:29.722Z,3.42
2017-06-30T06:49:51.886Z,3.35
2017-06-30T06:50:09.862Z,4.22
2017-06-30T06:50:29.878Z,4.15
2017-06-30T06:50:48.672Z,4.30
2017-06-30T06:51:08.866Z,3.40
2017-06-30T06:51:26.771Z,3.47
2017-06-30T06:51:48.859Z,4.43
2017-06-30T06:52:08.339Z,3.55
2017-06-30T06:52:26.259Z,3.42
2017-06-30T06:52:47.847Z,2.60
2017-06-30T06:53:05.589Z,2.90
2017-06-30T06:53:25.651Z,2.80
2017-06-30T06:53:44.291Z,2.75
2017-06-30T06:54:06.415Z,2.40
2017-06-30T06:54:25.827Z,3.28
2017-06-30T06:54:42.351Z,3.33
2017-06-30T06:55:03.750Z,4.30
2017-06-30T06:55:27.318Z,4.10
2017-06-30T06:55:49.813Z,3.35
2017-06-30T06:56:09.184Z,3.65
2017-06-30T06:56:32.820Z,3.20
2017-06-30T06:56:52.396Z,2.90
2017-06-30T06:57:09.810Z,2.80
2017-06-30T06:57:30.793Z,3.28
2017-06-30T06:57:51.483Z,3.72
2017-06-30T06:58:10.336Z,2.97
2017-06-30T06:58:28.453Z,2.62
2017-06-30T06:58:47.295Z,2.40
2017-06-30T06:59:05.117Z,3.28
2017-06-30T06:59:23.769Z,3.58
2017-06-30T06:59:44.825Z,3.72
2017-06-30T07:00:05.758Z,4.50
2017-06-30T07:00:26.006Z,4.00
2017-06-30T07:00:44.948Z,4.93
2017-06-30T07:01:04.606Z,3.42
2017-06-30T07:01:23.714Z,4.65
2017-06-30T07:01:43.801Z,3.47
2017-06-30T07:02:03.756Z,3.58
2017-06-30T07:02:27.051Z,2.00
2017-06-30T07:02:50.725Z,2.17
2017-06-30T07:03:12.507Z,2.97
2017-06-30T07:03:31.146Z,3.40
2017-06-30T07:03:53.711Z,3.47
2017-06-30T07:04:15.706Z,2.78
2017-06-30T07:04:31.743Z,3.08
2017-06-30T07:04:48.468Z,3.00
2017-06-30T07:05:09.245Z,3.60
2017-06-30T07:05:26.672Z,3.72
2017-06-30T07:05:44.985Z,3.20
2017-06-30T07:06:04.226Z,3.20
2017-06-30T07:06:21.846Z,4.45
2017-06-30T07:06:44.069Z,4.25
2017-06-30T07:07:01.878Z,5.07
2017-06-30T07:07:21.667Z,3.72
2017-06-30T07:07:43.367Z,3.85
2017-06-30T07:08:03.662Z,3.75
2017-06-30T07:08:20.115Z,3.37
2017-06-30T07:08:40.386Z,3.37
2017-06-30T07:09:00.769Z,3.33
2017-06-30T07:09:19.304Z,3.30
2017-06-30T07:09:37.633Z,2.65
2017-06-30T07:09:55.637Z,3.10
2017-06-30T07:10:13.573Z,3.60
2017-06-30T07:10:32.634Z,4.60
2017-06-30T07:10:51.359Z,4.03
2017-06-30T07:11:11.556Z,4.55
2017-06-30T07:11:33.619Z,3.10
2017-06-30T07:11:56.483Z,3.00
2017-06-30T07:12:18.096Z,2.60
2017-06-30T07:12:40.603Z,2.78
2017-06-30T07:13:01.598Z,2.90
2017-06-30T07:13:24.596Z,3.55
2017-06-30T07:13:43.694Z,3.00
2017-06-30T07:14:03.462Z,3.00
2017-06-30T07:14:24.247Z,3.10
2017-06-30T07:14:41.451Z,3.20
2017-06-30T07:15:01.313Z,3.00
2017-06-30T07:15:21.570Z,2.12
2017-06-30T07:15:44.117Z,2.17
2017-06-30T07:16:06.561Z,2.80
2017-06-30T07:16:25.694Z,4.30
2017-06-30T07:16:47.505Z,4.12
2017-06-30T07:17:08.547Z,3.75
2017-06-30T07:17:31.887Z,2.87
2017-06-30T07:17:50.571Z,2.85
2017-06-30T07:18:10.536Z,2.20
2017-06-30T07:18:34.531Z,2.05
2017-06-30T07:18:53.048Z,2.30
2017-06-30T07:19:15.522Z,3.55
2017-06-30T07:19:33.557Z,3.30
2017-06-30T07:19:54.487Z,3.05
2017-06-30T07:20:17.508Z,2.87
2017-06-30T07:20:40.504Z,4.70
2017-06-30T07:20:58.587Z,5.53
2017-06-30T07:21:16.819Z,4.40
2017-06-30T07:21:36.172Z,3.47
2017-06-30T07:21:56.037Z,3.70
2017-06-30T07:22:15.287Z,4.12
2017-06-30T07:22:32.389Z,6.93
2017-06-30T07:22:51.480Z,5.97
2017-06-30T07:23:09.475Z,6.47
2017-06-30T07:23:28.705Z,4.22
2017-06-30T07:23:47.522Z,4.70
2017-06-30T07:24:05.364Z,4.30
2017-06-30T07:24:26.153Z,5.12
2017-06-30T07:24:43.661Z,4.65
2017-06-30T07:25:01.451Z,6.40
2017-06-30T07:25:24.113Z,5.65
2017-06-30T07:25:42.544Z,6.28
2017-06-30T07:26:02.008Z,4.87
2017-06-30T07:26:22.787Z,6.20
2017-06-30T07:26:44.440Z,6.43
2017-06-30T07:27:02.431Z,6.75
2017-06-30T07:27:24.843Z,5.30
2017-06-30T07:27:46.425Z,4.18
2017-06-30T07:28:07.070Z,3.42
2017-06-30T07:28:28.414Z,2.83
2017-06-30T07:28:45.939Z,3.20
2017-06-30T07:29:08.414Z,4.95
2017-06-30T07:29:30.418Z,4.80
2017-06-30T07:29:51.392Z,4.35
2017-06-30T07:30:12.389Z,4.85
2017-06-30T07:30:30.902Z,6.30
2017-06-30T07:30:53.837Z,6.82
2017-06-30T07:31:14.829Z,4.30
2017-06-30T07:31:35.372Z,3.92
2017-06-30T07:31:52.102Z,4.95
2017-06-30T07:32:08.793Z,5.05
2017-06-30T07:32:28.966Z,4.80
2017-06-30T07:32:49.386Z,2.83
2017-06-30T07:33:10.348Z,2.80
2017-06-30T07:33:28.346Z,2.90
2017-06-30T07:33:51.349Z,3.25
2017-06-30T07:34:12.290Z,4.40
2017-06-30T07:34:34.388Z,5.20
2017-06-30T07:34:55.335Z,4.40
2017-06-30T07:35:15.272Z,4.60
2017-06-30T07:35:38.306Z,6.47
2017-06-30T07:35:58.317Z,6.55
2017-06-30T07:36:17.750Z,6.00
2017-06-30T07:36:36.057Z,3.90
2017-06-30T07:36:53.316Z,3.95
2017-06-30T07:37:11.301Z,3.15
2017-06-30T07:37:32.016Z,3.62
2017-06-30T07:37:52.754Z,4.10
2017-06-30T07:38:13.031Z,3.97
2017-06-30T07:38:29.624Z,3.80
2017-06-30T07:38:49.587Z,4.00
2017-06-30T07:39:10.582Z,5.07
2017-06-30T07:39:28.708Z,5.97
2017-06-30T07:39:48.077Z,5.93
2017-06-30T07:40:04.955Z,5.07
2017-06-30T07:40:25.267Z,4.15
2017-06-30T07:40:48.476Z,3.17
2017-06-30T07:41:07.262Z,3.70
2017-06-30T07:41:29.252Z,4.85
2017-06-30T07:41:48.174Z,5.90
2017-06-30T07:42:07.233Z,5.90
2017-06-30T07:42:24.733Z,4.35
2017-06-30T07:42:48.231Z,3.92
2017-06-30T07:43:12.231Z,5.45
2017-06-30T07:43:33.549Z,5.75
2017-06-30T07:43:52.597Z,3.50
2017-06-30T07:44:11.636Z,4.00
2017-06-30T07:44:28.430Z,6.62
2017-06-30T07:44:48.498Z,7.85
2017-06-30T07:45:07.135Z,8.15
2017-06-30T07:45:27.104Z,5.40
2017-06-30T07:45:47.689Z,4.18
2017-06-30T07:46:08.181Z,3.67
2017-06-30T07:46:28.645Z,4.75
2017-06-30T07:46:46.250Z,5.57
2017-06-30T07:47:06.854Z,7.97
2017-06-30T07:47:24.658Z,9.07
2017-06-30T07:47:43.601Z,8.65
2017-06-30T07:48:05.838Z,5.45
2017-06-30T07:48:26.416Z,4.30
2017-06-30T07:48:48.053Z,4.50
2017-06-30T07:49:03.887Z,4.82
2017-06-30T07:49:20.374Z,4.40
2017-06-30T07:49:40.655Z,3.55
2017-06-30T07:50:00.142Z,3.47
2017-06-30T07:50:18.944Z,3.42
2017-06-30T07:50:36.396Z,3.92
2017-06-30T07:50:53.867Z,4.28
2017-06-30T07:51:13.521Z,4.55
2017-06-30T07:51:31.447Z,3.95
2017-06-30T07:51:51.156Z,2.97
2017-06-30T07:52:08.714Z,3.95
2017-06-30T07:52:28.804Z,5.05
2017-06-30T07:52:48.107Z,5.35
2017-06-30T07:53:06.104Z,4.35
2017-06-30T07:53:26.100Z,3.35
2017-06-30T07:54:19.280Z,4.75
2017-06-30T07:54:36.786Z,5.40
2017-06-30T07:54:56.650Z,6.93
2017-06-30T07:55:20.097Z,6.60
2017-06-30T07:55:39.969Z,6.12
2017-06-30T07:56:01.186Z,4.15
2017-06-30T07:56:21.030Z,4.03
2017-06-30T07:56:39.059Z,6.25
2017-06-30T07:57:00.561Z,8.45
2017-06-30T07:57:22.880Z,7.70
2017-06-30T07:57:45.009Z,6.20
2017-06-30T07:58:05.784Z,3.62
2017-06-30T07:58:28.041Z,4.30
2017-06-30T07:58:49.613Z,4.40
2017-06-30T07:59:09.030Z,5.90
2017-06-30T07:59:28.423Z,5.90
2017-06-30T07:59:48.392Z,5.60
2017-06-30T08:00:04.567Z,4.30
2017-06-30T08:00:23.718Z,5.35
2017-06-30T08:00:45.529Z,5.62
2017-06-30T08:01:05.012Z,5.75
2017-06-30T08:01:22.804Z,4.28
2017-06-30T08:01:42.721Z,4.20
2017-06-30T08:01:59.159Z,4.43
2017-06-30T08:02:16.978Z,4.60
2017-06-30T08:02:38.019Z,4.00
2017-06-30T08:02:58.982Z,4.05
2017-06-30T08:03:21.484Z,5.30
2017-06-30T08:03:42.047Z,6.43
2017-06-30T08:04:06.970Z,5.93
2017-06-30T08:04:24.975Z,4.57
2017-06-30T08:04:44.537Z,5.00
2017-06-30T08:05:03.957Z,4.37
2017-06-30T08:05:25.039Z,6.43
2017-06-30T08:05:48.124Z,5.90
2017-06-30T08:06:06.947Z,5.90
2017-06-30T08:06:24.063Z,3.62
2017-06-30T08:06:45.159Z,4.03
2017-06-30T08:07:06.766Z,4.12
2017-06-30T08:07:27.930Z,4.75
2017-06-30T08:07:46.205Z,5.43
2017-06-30T08:08:06.920Z,8.55
2017-06-30T08:08:27.915Z,8.40
2017-06-30T08:08:46.298Z,8.55
2017-06-30T08:09:03.396Z,5.40
2017-06-30T08:09:20.497Z,6.05
2017-06-30T08:09:42.902Z,6.18
2017-06-30T08:09:58.898Z,5.90
2017-06-30T08:10:19.580Z,5.15
2017-06-30T08:10:40.888Z,3.60
2017-06-30T08:11:03.721Z,3.50
2017-06-30T08:11:23.478Z,3.37
2017-06-30T08:11:40.381Z,3.50
2017-06-30T08:11:57.377Z,3.30
2017-06-30T08:12:17.557Z,3.28
2017-06-30T08:12:37.866Z,4.87
2017-06-30T08:12:56.063Z,4.85
2017-06-30T08:13:16.871Z,5.65
2017-06-30T08:13:36.854Z,5.43
2017-06-30T08:13:56.261Z,6.95
2017-06-30T08:14:14.384Z,7.15
2017-06-30T08:14:36.840Z,6.20
2017-06-30T08:15:00.364Z,5.55
2017-06-30T08:15:18.283Z,4.87
2017-06-30T08:15:40.838Z,4.53
2017-06-30T08:16:04.366Z,3.12
2017-06-30T08:16:23.309Z,3.47
2017-06-30T08:16:41.537Z,3.22
2017-06-30T08:17:01.709Z,3.62
2017-06-30T08:17:26.805Z,6.30
2017-06-30T08:17:43.803Z,7.85
2017-06-30T08:18:03.053Z,7.60
2017-06-30T08:18:22.804Z,4.90
2017-06-30T08:18:41.756Z,3.60
2017-06-30T08:19:00.392Z,3.35
2017-06-30T08:19:20.359Z,2.92
2017-06-30T08:19:42.780Z,5.57
2017-06-30T08:20:04.390Z,6.00
2017-06-30T08:20:26.771Z,6.80
2017-06-30T08:20:46.268Z,3.95
2017-06-30T08:21:04.910Z,5.00
2017-06-30T08:21:24.573Z,7.03
2017-06-30T08:21:46.755Z,8.25
2017-06-30T08:22:09.124Z,7.37
2017-06-30T08:22:32.062Z,4.37
2017-06-30T08:22:51.764Z,4.57
2017-06-30T08:23:11.067Z,4.57
2017-06-30T08:23:34.734Z,5.12
2017-06-30T08:23:53.727Z,4.47
2017-06-30T08:24:11.724Z,4.22
2017-06-30T08:24:32.726Z,3.35
2017-06-30T08:24:49.064Z,3.20
2017-06-30T08:25:09.715Z,3.40
2017-06-30T08:25:28.285Z,3.83
2017-06-30T08:25:45.763Z,5.10
2017-06-30T08:26:06.337Z,4.93
2017-06-30T08:26:23.982Z,5.25
2017-06-30T08:26:46.202Z,5.90
2017-06-30T08:27:04.230Z,4.78
2017-06-30T08:27:26.683Z,4.68
2017-06-30T08:27:45.679Z,3.70
2017-06-30T08:28:05.675Z,5.07
2017-06-30T08:28:25.672Z,4.90
2017-06-30T08:28:41.309Z,5.53
2017-06-30T08:29:00.150Z,5.03
2017-06-30T08:29:20.661Z,5.30
2017-06-30T08:29:39.468Z,4.75
2017-06-30T08:29:58.306Z,4.50
2017-06-30T08:30:16.661Z,3.55
2017-06-30T08:30:35.515Z,2.80
2017-06-30T08:30:56.641Z,2.78
2017-06-30T08:31:18.639Z,3.65
2017-06-30T08:31:37.223Z,3.50
2017-06-30T08:31:58.644Z,3.50
2017-06-30T08:32:16.249Z,3.42
2017-06-30T08:32:38.288Z,3.37
2017-06-30T08:32:58.334Z,3.17
2017-06-30T08:33:18.612Z,3.65
2017-06-30T08:33:39.388Z,5.35
2017-06-30T08:33:57.635Z,5.97
2017-06-30T08:34:19.018Z,5.25
2017-06-30T08:34:44.420Z,4.15
2017-06-30T08:35:07.589Z,3.30
2017-06-30T08:35:28.447Z,5.47
2017-06-30T08:35:47.803Z,7.62
2017-06-30T08:36:06.577Z,8.40
2017-06-30T08:36:25.380Z,7.00
2017-06-30T08:36:44.225Z,5.28
2017-06-30T08:36:59.890Z,4.60
2017-06-30T08:37:19.593Z,4.57
2017-06-30T08:37:41.771Z,4.50
2017-06-30T08:38:02.048Z,3.87
2017-06-30T08:38:22.523Z,4.15
2017-06-30T08:38:40.545Z,4.18
2017-06-30T08:38:59.490Z,4.53
2017-06-30T08:39:18.128Z,4.28
2017-06-30T08:39:38.096Z,7.07
2017-06-30T08:39:56.835Z,8.70
2017-06-30T08:40:17.594Z,9.77
2017-06-30T08:40:38.523Z,7.78
2017-06-30T08:41:00.425Z,5.28
2017-06-30T08:41:19.515Z,4.75
2017-06-30T08:41:39.732Z,4.75
2017-06-30T08:41:58.281Z,4.93
2017-06-30T08:42:16.513Z,6.10
2017-06-30T08:42:38.519Z,5.05
2017-06-30T08:42:55.007Z,7.25
2017-06-30T08:43:13.489Z,7.30
2017-06-30T08:43:34.485Z,8.27
2017-06-30T08:43:52.504Z,7.60
2017-06-30T08:44:15.477Z,5.45
2017-06-30T08:44:37.829Z,4.22
2017-06-30T08:44:57.889Z,4.37
2017-06-30T08:45:17.041Z,4.72
2017-06-30T08:45:36.954Z,5.18
2017-06-30T08:45:56.767Z,6.00
2017-06-30T08:46:18.451Z,6.22
2017-06-30T08:46:35.889Z,4.75
2017-06-30T08:46:51.656Z,4.05
2017-06-30T08:47:10.602Z,3.37
2017-06-30T08:47:29.136Z,3.55
2017-06-30T08:47:47.434Z,4.10
2017-06-30T08:48:09.094Z,4.62
2017-06-30T08:48:26.407Z,4.45
2017-06-30T08:48:44.911Z,4.35
2017-06-30T08:49:02.934Z,5.87
2017-06-30T08:49:20.241Z,6.40
2017-06-30T08:49:39.905Z,6.18
2017-06-30T08:49:58.946Z,4.05
2017-06-30T08:50:19.739Z,2.60
2017-06-30T08:50:39.946Z,2.35
2017-06-30T08:51:02.409Z,2.83
2017-06-30T08:51:22.360Z,3.10
2017-06-30T08:51:40.864Z,5.75
2017-06-30T08:52:02.339Z,5.75
2017-06-30T08:52:20.434Z,6.55
2017-06-30T08:52:42.311Z,4.75
2017-06-30T08:53:02.348Z,3.78
2017-06-30T08:53:21.391Z,3.92
2017-06-30T08:53:40.376Z,4.03
2017-06-30T08:53:57.366Z,5.37
2017-06-30T08:54:14.942Z,6.15
2017-06-30T08:54:36.548Z,7.90
2017-06-30T08:54:55.425Z,8.02
2017-06-30T08:55:13.112Z,6.28
2017-06-30T08:55:28.466Z,3.80
2017-06-30T08:55:47.113Z,4.65
2017-06-30T08:56:05.434Z,5.30
2017-06-30T08:56:28.062Z,6.43
2017-06-30T08:56:47.829Z,5.90
2017-06-30T08:57:08.920Z,5.93
2017-06-30T08:57:31.972Z,4.25
2017-06-30T08:57:52.237Z,5.00
2017-06-30T08:58:11.339Z,3.83
2017-06-30T08:58:31.321Z,3.65
2017-06-30T08:58:52.553Z,3.58
2017-06-30T08:59:13.290Z,4.40
2017-06-30T08:59:34.024Z,4.78
2017-06-30T08:59:53.288Z,4.25
2017-06-30T09:00:12.115Z,4.35
2017-06-30T09:00:31.878Z,4.97
2017-06-30T09:00:51.149Z,5.25
2017-06-30T09:01:06.797Z,6.10
2017-06-30T09:01:24.820Z,5.53
2017-06-30T09:01:44.379Z,5.40
2017-06-30T09:02:05.574Z,4.12
2017-06-30T09:02:22.174Z,5.30
2017-06-30T09:02:42.768Z,4.40
2017-06-30T09:03:02.818Z,3.97
2017-06-30T09:03:21.060Z,2.75
2017-06-30T09:03:40.192Z,3.60
2017-06-30T09:04:02.139Z,5.30
2017-06-30T09:04:20.951Z,5.80
2017-06-30T09:04:42.558Z,6.55
2017-06-30T09:05:03.218Z,6.60
2017-06-30T09:05:24.141Z,6.30
2017-06-30T09:05:41.849Z,4.68
2017-06-30T09:06:00.994Z,3.90
2017-06-30T09:06:20.864Z,3.42
2017-06-30T09:06:38.813Z,5.35
2017-06-30T09:06:58.745Z,5.28
2017-06-30T09:07:17.997Z,5.80
2017-06-30T09:07:38.192Z,5.40
2017-06-30T09:07:56.185Z,4.80
2017-06-30T09:08:14.726Z,4.47
2017-06-30T09:08:34.387Z,4.35
2017-06-30T09:08:54.969Z,3.80
2017-06-30T09:09:14.733Z,3.65
2017-06-30T09:09:35.008Z,5.47
2017-06-30T09:09:59.394Z,6.95
2017-06-30T09:10:21.801Z,8.43
2017-06-30T09:10:45.265Z,5.50
2017-06-30T09:11:10.751Z,4.12
2017-06-30T09:11:30.720Z,5.53
2017-06-30T09:11:52.117Z,5.65
2017-06-30T09:12:12.141Z,6.22
2017-06-30T09:12:29.829Z,5.82
2017-06-30T09:12:51.135Z,6.55
2017-06-30T09:13:14.860Z,6.78
2017-06-30T09:13:36.130Z,4.55
2017-06-30T09:13:56.440Z,4.68
2017-06-30T09:14:18.556Z,4.68
2017-06-30T09:14:37.086Z,4.53
2017-06-30T09:14:57.053Z,3.75
2017-06-30T09:15:14.056Z,4.03
2017-06-30T09:15:32.096Z,4.50
2017-06-30T09:15:53.102Z,5.10
2017-06-30T09:16:11.720Z,4.45
2017-06-30T09:16:34.116Z,5.03
2017-06-30T09:16:54.080Z,3.17
2017-06-30T09:17:14.781Z,3.30
2017-06-30T09:17:38.024Z,3.20
2017-06-30T09:17:59.818Z,5.10
2017-06-30T09:18:20.068Z,5.05
2017-06-30T09:18:38.110Z,4.85
2017-06-30T09:18:58.078Z,3.45
2017-06-30T09:19:16.636Z,3.35
2017-06-30T09:19:37.331Z,4.60
2017-06-30T09:19:57.052Z,6.10
2017-06-30T09:20:16.040Z,5.75
2017-06-30T09:20:39.209Z,4.72
2017-06-30T09:21:02.626Z,3.15
2017-06-30T09:21:20.546Z,3.25
2017-06-30T09:21:40.413Z,3.50
2017-06-30T09:22:01.621Z,3.80
2017-06-30T09:22:24.339Z,3.60
2017-06-30T09:22:45.016Z,3.50
2017-06-30T09:23:03.967Z,3.60
2017-06-30T09:23:25.216Z,3.78
2017-06-30T09:23:47.493Z,4.60
2017-06-30T09:24:09.213Z,5.75
2017-06-30T09:24:27.732Z,6.90
2017-06-30T09:24:44.985Z,5.40
2017-06-30T09:25:02.960Z,5.10
2017-06-30T09:25:23.329Z,3.42
2017-06-30T09:25:48.015Z,3.42
2017-06-30T09:26:10.005Z,4.35
2017-06-30T09:26:31.040Z,4.80
2017-06-30T09:26:50.475Z,4.12
2017-06-30T09:27:10.867Z,4.03
2017-06-30T09:27:26.734Z,3.60
2017-06-30T09:27:43.924Z,4.03
2017-06-30T09:28:02.256Z,3.08
2017-06-30T09:28:23.939Z,3.53
2017-06-30T09:28:45.587Z,4.12
2017-06-30T09:29:07.928Z,3.85
2017-06-30T09:29:29.923Z,3.92
2017-06-30T09:29:48.937Z,5.43
2017-06-30T09:30:09.232Z,5.43
2017-06-30T09:30:30.332Z,4.62
2017-06-30T09:30:49.592Z,3.35
2017-06-30T09:31:08.010Z,3.40
2017-06-30T09:31:31.107Z,2.78
2017-06-30T09:31:53.693Z,3.75
2017-06-30T09:32:13.926Z,5.12
2017-06-30T09:32:37.885Z,5.28
2017-06-30T09:32:55.934Z,4.40
2017-06-30T09:33:14.983Z,5.50
2017-06-30T09:33:34.924Z,6.47
2017-06-30T09:33:56.662Z,6.25
2017-06-30T09:34:24.866Z,4.30
2017-06-30T09:34:43.766Z,2.97
2017-06-30T09:35:02.855Z,3.37
2017-06-30T09:35:20.857Z,3.92
2017-06-30T09:35:41.633Z,4.70
2017-06-30T09:35:59.441Z,4.60
2017-06-30T09:36:18.836Z,6.62
2017-06-30T09:36:37.427Z,5.97
2017-06-30T09:36:53.848Z,6.37
2017-06-30T09:37:11.632Z,4.30
2017-06-30T09:37:28.423Z,4.90
2017-06-30T09:37:46.549Z,4.20
2017-06-30T09:38:05.816Z,3.80
2017-06-30T09:38:26.810Z,4.10
2017-06-30T09:38:46.815Z,3.87
2017-06-30T09:39:05.605Z,5.10
2017-06-30T09:39:26.796Z,6.93
2017-06-30T09:39:50.792Z,7.87
2017-06-30T09:40:10.797Z,6.55
2017-06-30T09:40:33.783Z,4.93
2017-06-30T09:40:51.588Z,4.70
2017-06-30T09:41:11.788Z,4.57
2017-06-30T09:41:29.885Z,3.67
2017-06-30T09:41:46.981Z,2.75
2017-06-30T09:42:05.764Z,3.05
2017-06-30T09:42:26.762Z,4.40
2017-06-30T09:42:44.639Z,5.70
2017-06-30T09:43:04.756Z,6.72
2017-06-30T09:43:27.238Z,5.90
2017-06-30T09:43:51.743Z,5.37
2017-06-30T09:44:10.547Z,5.07
2017-06-30T09:44:31.562Z,3.33
2017-06-30T09:44:52.763Z,3.97
2017-06-30T09:45:11.278Z,3.17
2017-06-30T09:45:30.626Z,3.40
2017-06-30T09:45:50.389Z,2.70
2017-06-30T09:46:09.712Z,2.70
2017-06-30T09:46:30.708Z,3.50
2017-06-30T09:46:50.190Z,3.28
2017-06-30T09:47:08.434Z,4.20
2017-06-30T09:47:29.700Z,4.43
2017-06-30T09:47:50.692Z,5.25
2017-06-30T09:48:09.445Z,5.80
2017-06-30T09:48:28.684Z,5.43
2017-06-30T09:48:49.076Z,6.53
2017-06-30T09:49:08.676Z,7.22
2017-06-30T09:49:26.676Z,7.12
2017-06-30T09:49:49.666Z,6.20
2017-06-30T09:50:09.767Z,3.92
2017-06-30T09:50:34.658Z,4.07
2017-06-30T09:50:54.543Z,3.95
2017-06-30T09:51:13.651Z,3.60
2017-06-30T09:51:35.884Z,2.70
2017-06-30T09:51:54.724Z,3.37
2017-06-30T09:52:12.854Z,4.87
2017-06-30T09:52:36.200Z,4.82
2017-06-30T09:52:53.605Z,4.60
2017-06-30T09:53:14.392Z,3.65
2017-06-30T09:53:30.988Z,4.72
2017-06-30T09:53:49.420Z,4.80
2017-06-30T09:54:09.614Z,5.80
2017-06-30T09:54:27.095Z,6.03
2017-06-30T09:54:46.555Z,5.55
2017-06-30T09:55:08.610Z,5.15
2017-06-30T09:55:29.622Z,5.53
2017-06-30T09:55:48.403Z,5.65
2017-06-30T09:56:10.586Z,4.78
2017-06-30T09:56:28.754Z,3.70
2017-06-30T09:56:48.925Z,3.37
2017-06-30T09:57:08.575Z,3.28
2017-06-30T09:57:29.890Z,4.12
2017-06-30T09:57:47.393Z,4.70
2017-06-30T09:58:08.792Z,5.30
2017-06-30T09:58:27.533Z,3.80
2017-06-30T09:58:44.121Z,3.28
2017-06-30T09:59:01.553Z,3.12
2017-06-30T09:59:20.881Z,3.45
2017-06-30T09:59:39.595Z,4.40
2017-06-30T09:59:56.593Z,4.25
2017-06-30T10:00:14.846Z,4.00
2017-06-30T10:00:34.536Z,4.57
2017-06-30T10:00:52.528Z,4.18
2017-06-30T10:01:12.296Z,3.83
2017-06-30T10:01:32.835Z,3.37
2017-06-30T10:01:51.614Z,3.37
2017-06-30T10:02:09.335Z,3.55
2017-06-30T10:02:30.021Z,3.20
2017-06-30T10:02:49.063Z,3.70
2017-06-30T10:03:08.212Z,3.08
2017-06-30T10:03:27.771Z,3.05
2017-06-30T10:03:49.511Z,2.50
2017-06-30T10:04:09.489Z,3.53
2017-06-30T10:04:29.481Z,4.60
2017-06-30T10:04:49.482Z,4.60
2017-06-30T10:05:08.481Z,4.22
2017-06-30T10:05:30.471Z,3.70
2017-06-30T10:05:48.477Z,3.35
2017-06-30T10:06:08.500Z,3.97
2017-06-30T10:06:33.468Z,5.00
2017-06-30T10:06:54.452Z,5.00
2017-06-30T10:07:13.151Z,5.15
2017-06-30T10:07:33.499Z,4.72
2017-06-30T10:07:54.450Z,4.75
2017-06-30T10:08:14.999Z,3.50
2017-06-30T10:08:36.198Z,4.15
2017-06-30T10:08:57.906Z,4.18
2017-06-30T10:09:17.994Z,4.07
2017-06-30T10:09:38.869Z,3.90
2017-06-30T10:09:58.686Z,3.60
2017-06-30T10:10:19.413Z,3.67
2017-06-30T10:10:39.405Z,4.10
2017-06-30T10:11:00.400Z,5.95
2017-06-30T10:11:21.271Z,6.78
2017-06-30T10:11:39.908Z,6.50
2017-06-30T10:11:58.030Z,5.45
2017-06-30T10:12:17.075Z,4.87
2017-06-30T10:12:37.407Z,6.05
2017-06-30T10:12:58.468Z,5.03
2017-06-30T10:13:16.369Z,5.53
2017-06-30T10:13:35.517Z,4.18
2017-06-30T10:13:54.149Z,4.00
2017-06-30T10:14:11.872Z,3.72
2017-06-30T10:14:33.473Z,3.25
2017-06-30T10:14:53.040Z,4.70
2017-06-30T10:15:16.347Z,4.07
2017-06-30T10:15:34.090Z,4.57
2017-06-30T10:15:53.142Z,4.70
2017-06-30T10:16:14.152Z,6.28
2017-06-30T10:16:34.203Z,6.55
2017-06-30T10:16:52.632Z,5.35
2017-06-30T10:17:13.533Z,5.12
2017-06-30T10:17:35.318Z,5.55
2017-06-30T10:18:01.312Z,5.50
2017-06-30T10:18:21.208Z,4.18
2017-06-30T10:18:41.309Z,3.80
2017-06-30T10:18:58.300Z,4.22
2017-06-30T10:19:21.295Z,3.87
2017-06-30T10:19:38.116Z,2.80
2017-06-30T10:20:01.768Z,2.55
2017-06-30T10:20:24.296Z,2.72
2017-06-30T10:20:42.827Z,3.13
2017-06-30T10:21:01.062Z,4.62
2017-06-30T10:21:21.034Z,4.55
2017-06-30T10:21:44.270Z,4.43
2017-06-30T10:22:05.669Z,3.10
2017-06-30T10:22:26.263Z,3.28
2017-06-30T10:23:27.254Z,5.43
2017-06-30T10:23:50.241Z,4.28
2017-06-30T10:24:11.245Z,5.03
2017-06-30T10:24:30.232Z,4.53
2017-06-30T10:24:50.857Z,4.60
2017-06-30T10:25:11.224Z,3.45
2017-06-30T10:25:32.220Z,3.53
2017-06-30T10:25:51.216Z,2.92
2017-06-30T10:26:08.668Z,3.50
2017-06-30T10:26:28.207Z,5.30
2017-06-30T10:26:49.319Z,5.53
2017-06-30T10:27:13.204Z,4.40
2017-06-30T10:27:29.148Z,3.90
2017-06-30T10:27:46.673Z,4.22
2017-06-30T10:28:07.863Z,5.40
2017-06-30T10:28:26.612Z,5.30
2017-06-30T10:28:44.874Z,5.78
2017-06-30T10:29:06.200Z,4.35
2017-06-30T10:29:29.172Z,4.20
2017-06-30T10:29:50.061Z,3.10
2017-06-30T10:30:10.161Z,3.03
2017-06-30T10:30:29.374Z,2.78
2017-06-30T10:30:49.216Z,2.97
2017-06-30T10:31:09.150Z,3.17
2017-06-30T10:31:31.198Z,4.37
2017-06-30T10:31:51.911Z,4.60
2017-06-30T10:32:11.964Z,5.00
2017-06-30T10:32:32.130Z,4.90
2017-06-30T10:32:49.659Z,4.93
2017-06-30T10:33:09.121Z,4.68
2017-06-30T10:33:29.697Z,4.25
2017-06-30T10:33:47.111Z,5.43
2017-06-30T10:34:07.110Z,6.18
2017-06-30T10:34:27.047Z,5.60
2017-06-30T10:34:49.102Z,4.47
2017-06-30T10:35:08.417Z,4.45
2017-06-30T10:35:31.107Z,3.97
2017-06-30T10:35:53.090Z,4.45
2017-06-30T10:36:14.361Z,4.05
2017-06-30T10:36:29.513Z,4.28
2017-06-30T10:36:50.095Z,4.00
2017-06-30T10:37:10.882Z,5.00
2017-06-30T10:37:30.234Z,4.72
2017-06-30T10:37:51.066Z,4.10
2017-06-30T10:38:09.689Z,3.03
2017-06-30T10:38:30.058Z,3.05
2017-06-30T10:38:51.847Z,3.60
2017-06-30T10:39:13.763Z,3.10
2017-06-30T10:39:32.403Z,3.22
2017-06-30T10:39:49.805Z,2.80
2017-06-30T10:40:11.729Z,2.60
2017-06-30T10:40:32.030Z,2.58
2017-06-30T10:40:51.250Z,3.90
2017-06-30T10:41:10.705Z,3.97
2017-06-30T10:41:31.020Z,4.78
2017-06-30T10:41:53.014Z,4.80
2017-06-30T10:42:11.221Z,4.70
2017-06-30T10:42:30.620Z,4.50
2017-06-30T10:42:49.723Z,4.40
2017-06-30T10:43:09.692Z,5.10
2017-06-30T10:43:29.996Z,4.55
2017-06-30T10:43:50.991Z,3.30
2017-06-30T10:44:09.989Z,3.80
2017-06-30T10:44:32.982Z,4.20
2017-06-30T10:44:52.980Z,4.97
2017-06-30T10:45:12.162Z,5.30
2017-06-30T10:45:33.889Z,5.40
2017-06-30T10:45:53.532Z,4.47
2017-06-30T10:46:12.375Z,4.62
2017-06-30T10:46:30.293Z,5.90
2017-06-30T10:46:46.060Z,7.07
2017-06-30T10:47:05.214Z,7.93
2017-06-30T10:47:28.152Z,10.40
2017-06-30T10:47:49.448Z,9.55
2017-06-30T10:48:08.968Z,9.07
2017-06-30T10:48:29.933Z,8.68
2017-06-30T10:48:49.557Z,7.60
2017-06-30T10:49:09.529Z,7.93